createdAt,value
2022-10-29T00:01:24.053Z,22.05
2022-10-29T00:03:52.595Z,22.08
2022-10-29T00:06:21.000Z,22.12
2022-10-29T00:08:49.503Z,22.15
2022-10-29T00:11:21.626Z,22.18
2022-10-29T00:13:54.609Z,22.23
2022-10-29T00:16:25.500Z,22.28
2022-10-29T00:18:59.601Z,22.33
2022-10-29T00:21:28.975Z,22.39
2022-10-29T00:23:59.228Z,22.44
2022-10-29T00:26:31.300Z,22.50
2022-10-29T00:29:02.023Z,22.54
2022-10-29T00:31:30.584Z,22.57
2022-10-29T00:34:02.220Z,22.61
2022-10-29T00:36:31.703Z,22.69
2022-10-29T00:39:00.201Z,22.72
2022-10-29T00:41:30.901Z,22.79
2022-10-29T00:44:36.746Z,22.87
2022-10-29T00:47:13.077Z,22.96
2022-10-29T00:49:43.479Z,23.07
2022-10-29T00:52:12.321Z,23.19
2022-10-29T00:54:44.833Z,23.27
2022-10-29T00:57:30.438Z,23.36
2022-10-29T01:00:00.930Z,23.48
2022-10-29T01:02:33.079Z,23.56
2022-10-29T01:05:03.279Z,23.65
2022-10-29T01:07:32.134Z,23.74
2022-10-29T01:10:00.795Z,23.84
2022-10-29T01:12:47.961Z,23.96
2022-10-29T01:15:42.820Z,24.04
2022-10-29T01:18:32.183Z,24.11
2022-10-29T01:21:39.283Z,24.19
2022-10-29T01:24:22.425Z,24.27
2022-10-29T01:27:05.490Z,24.38
2022-10-29T01:30:06.397Z,24.49
2022-10-29T01:33:01.266Z,24.59
2022-10-29T01:36:04.044Z,24.67
2022-10-29T01:38:58.025Z,24.75
2022-10-29T01:41:46.802Z,24.82
2022-10-29T01:44:29.998Z,24.88
2022-10-29T01:47:03.907Z,24.95
2022-10-29T01:49:46.623Z,25.02
2022-10-29T01:52:17.874Z,25.11
2022-10-29T01:54:51.047Z,25.18
2022-10-29T01:57:38.693Z,25.27
2022-10-29T02:00:16.781Z,25.33
2022-10-29T02:03:00.232Z,25.44
2022-10-29T02:06:08.841Z,25.52
2022-10-29T02:08:47.871Z,25.64
2022-10-29T02:11:58.913Z,25.73
2022-10-29T02:14:53.121Z,25.86
2022-10-29T02:17:21.646Z,25.94
2022-10-29T02:19:49.999Z,25.99
2022-10-29T02:22:18.343Z,26.05
2022-10-29T02:24:46.637Z,26.10
2022-10-29T02:27:14.992Z,26.15
2022-10-29T02:29:43.597Z,26.19
2022-10-29T02:32:11.932Z,26.29
2022-10-29T02:34:40.223Z,26.37
2022-10-29T02:37:08.547Z,26.42
2022-10-29T02:39:36.891Z,26.48
2022-10-29T02:42:05.356Z,26.52
2022-10-29T02:44:33.680Z,26.59
2022-10-29T02:47:01.967Z,26.68
2022-10-29T02:49:30.391Z,26.72
2022-10-29T02:51:58.721Z,26.79
2022-10-29T02:54:27.045Z,26.85
2022-10-29T02:56:55.360Z,26.88
2022-10-29T02:59:23.776Z,26.96
2022-10-29T03:01:52.294Z,27.01
2022-10-29T03:04:20.725Z,27.09
2022-10-29T03:06:49.448Z,27.16
2022-10-29T03:09:17.772Z,27.23
2022-10-29T03:11:46.098Z,27.28
2022-10-29T03:14:14.488Z,27.33
2022-10-29T03:16:42.782Z,27.38
2022-10-29T03:19:11.158Z,27.44
2022-10-29T03:21:39.481Z,27.49
2022-10-29T03:24:08.114Z,27.54
2022-10-29T03:26:36.449Z,27.61
2022-10-29T03:29:04.853Z,27.65
2022-10-29T03:31:33.217Z,27.71
2022-10-29T03:34:01.581Z,27.77
2022-10-29T03:36:30.484Z,27.81
2022-10-29T03:38:58.778Z,27.87
2022-10-29T03:41:27.095Z,27.95
2022-10-29T03:46:28.530Z,28.06
2022-10-29T03:48:56.871Z,28.12
2022-10-29T03:51:25.448Z,28.17
2022-10-29T03:53:53.819Z,28.24
2022-10-29T03:56:22.140Z,28.29
2022-10-29T03:58:50.419Z,28.34
2022-10-29T04:01:18.787Z,28.40
2022-10-29T04:03:47.227Z,28.45
2022-10-29T04:06:17.050Z,28.50
2022-10-29T04:08:45.444Z,28.53
2022-10-29T04:11:15.247Z,28.56
2022-10-29T04:13:43.612Z,28.60
2022-10-29T04:16:11.905Z,28.61
2022-10-29T04:18:40.318Z,28.66
2022-10-29T04:29:34.124Z,28.81
2022-10-29T04:32:02.420Z,28.85
2022-10-29T04:34:30.789Z,28.92
2022-10-29T04:36:59.186Z,28.94
2022-10-29T04:39:27.521Z,28.97
2022-10-29T04:41:55.834Z,29.00
2022-10-29T04:44:24.233Z,29.06
2022-10-29T04:46:52.584Z,29.14
2022-10-29T04:49:20.944Z,29.23
2022-10-29T04:51:49.341Z,29.33
2022-10-29T04:54:17.739Z,29.40
2022-10-29T04:56:46.128Z,29.48
2022-10-29T04:59:14.544Z,29.54
2022-10-29T05:01:42.926Z,29.57
2022-10-29T05:04:11.529Z,29.59
2022-10-29T05:06:39.915Z,29.61
2022-10-29T05:09:08.209Z,29.63
2022-10-29T05:11:36.491Z,29.63
2022-10-29T05:14:04.969Z,29.64
2022-10-29T05:16:33.850Z,29.66
2022-10-29T05:19:02.276Z,29.66
2022-10-29T05:21:30.590Z,29.66
2022-10-29T05:23:59.073Z,29.68
2022-10-29T05:26:27.357Z,29.69
2022-10-29T05:28:55.701Z,29.72
2022-10-29T05:31:23.985Z,29.72
2022-10-29T05:33:55.502Z,29.73
2022-10-29T05:36:24.472Z,29.74
2022-10-29T05:38:52.806Z,29.74
2022-10-29T05:41:21.319Z,29.76
2022-10-29T05:43:52.691Z,29.78
2022-10-29T05:46:21.156Z,29.80
2022-10-29T05:48:49.480Z,29.79
2022-10-29T05:51:17.803Z,29.79
2022-10-29T05:53:46.199Z,29.80
2022-10-29T05:56:14.553Z,29.84
2022-10-29T05:58:42.917Z,29.89
2022-10-29T06:01:12.569Z,29.93
2022-10-29T06:03:41.300Z,29.98
2022-10-29T06:06:09.799Z,30.04
2022-10-29T06:08:38.270Z,30.12
2022-10-29T06:11:06.908Z,30.18
2022-10-29T06:13:35.259Z,30.19
2022-10-29T06:16:03.798Z,30.16
2022-10-29T06:18:32.210Z,30.11
2022-10-29T06:21:01.540Z,30.01
2022-10-29T06:23:30.794Z,29.97
2022-10-29T06:26:02.820Z,29.92
2022-10-29T06:28:34.743Z,29.92
2022-10-29T06:31:04.044Z,29.93
2022-10-29T06:33:32.546Z,29.96
2022-10-29T06:36:02.344Z,29.94
2022-10-29T06:38:30.715Z,29.96
2022-10-29T06:40:59.097Z,29.99
2022-10-29T06:43:27.581Z,30.04
2022-10-29T06:45:56.588Z,30.12
2022-10-29T06:48:24.959Z,30.17
2022-10-29T06:50:54.322Z,30.26
2022-10-29T06:53:22.788Z,30.26
2022-10-29T06:55:51.131Z,30.26
2022-10-29T06:58:21.533Z,30.26
2022-10-29T07:00:50.314Z,30.27
2022-10-29T07:03:21.374Z,30.24
2022-10-29T07:05:56.024Z,30.18
2022-10-29T07:08:24.455Z,30.11
2022-10-29T07:10:54.252Z,30.07
2022-10-29T07:13:22.544Z,30.07
2022-10-29T07:15:50.979Z,30.08
2022-10-29T07:18:19.341Z,30.09
2022-10-29T07:20:47.980Z,30.11
2022-10-29T07:23:16.466Z,30.12
2022-10-29T07:25:45.149Z,30.11
2022-10-29T07:28:19.433Z,30.17
2022-10-29T07:30:49.336Z,30.20
2022-10-29T07:33:18.692Z,30.18
2022-10-29T07:35:48.380Z,30.12
2022-10-29T07:38:16.996Z,30.10
2022-10-29T07:40:57.070Z,30.11
2022-10-29T07:43:25.451Z,30.12
2022-10-29T07:45:54.393Z,30.16
2022-10-29T07:48:23.076Z,30.17
2022-10-29T07:50:51.757Z,30.13
2022-10-29T07:53:20.154Z,30.07
2022-10-29T07:55:54.596Z,29.96
2022-10-29T07:58:23.788Z,29.87
2022-10-29T08:00:52.496Z,29.76
2022-10-29T08:03:20.939Z,29.63
2022-10-29T08:05:56.331Z,29.56
2022-10-29T08:08:26.061Z,29.49
2022-10-29T08:10:54.416Z,29.43
2022-10-29T08:13:22.728Z,29.37
2022-10-29T08:15:51.083Z,29.33
2022-10-29T08:18:19.999Z,29.28
2022-10-29T08:20:48.471Z,29.26
2022-10-29T08:23:17.128Z,29.20
2022-10-29T08:25:46.369Z,29.15
2022-10-29T08:28:16.661Z,29.13
2022-10-29T08:30:49.894Z,29.11
2022-10-29T08:33:19.000Z,29.11
2022-10-29T08:35:47.481Z,29.08
2022-10-29T08:38:16.074Z,29.07
2022-10-29T08:41:16.656Z,29.05
2022-10-29T08:44:06.327Z,29.00
2022-10-29T08:46:58.952Z,28.96
2022-10-29T08:49:52.059Z,28.93
2022-10-29T08:52:29.111Z,28.90
2022-10-29T08:55:35.962Z,28.85
2022-10-29T08:58:29.125Z,28.79
2022-10-29T09:00:59.888Z,28.77
2022-10-29T09:03:31.530Z,28.73
2022-10-29T09:06:18.564Z,28.69
2022-10-29T09:09:12.156Z,28.63
2022-10-29T09:11:58.460Z,28.60
2022-10-29T09:14:45.376Z,28.57
2022-10-29T09:17:33.878Z,28.54
2022-10-29T09:20:25.241Z,28.48
2022-10-29T09:23:03.171Z,28.45
2022-10-29T09:25:57.390Z,28.42
2022-10-29T09:29:08.185Z,28.40
2022-10-29T09:31:44.275Z,28.35
2022-10-29T09:34:26.162Z,28.31
2022-10-29T09:36:57.942Z,28.29
2022-10-29T09:39:41.069Z,28.25
2022-10-29T09:42:23.425Z,28.20
2022-10-29T09:44:59.505Z,28.16
2022-10-29T09:47:34.976Z,28.14
2022-10-29T09:50:09.216Z,28.10
2022-10-29T09:52:41.980Z,28.07
2022-10-29T09:55:28.373Z,28.01
2022-10-29T09:57:58.616Z,27.96
2022-10-29T10:00:30.031Z,27.92
2022-10-29T10:03:01.234Z,27.88
2022-10-29T10:05:32.568Z,27.82
2022-10-29T10:08:09.975Z,27.80
2022-10-29T10:11:02.678Z,27.75
2022-10-29T10:13:32.876Z,27.71
2022-10-29T10:16:03.933Z,27.68
2022-10-29T10:21:25.416Z,27.61
2022-10-29T10:23:55.779Z,27.56
2022-10-29T10:26:44.082Z,27.50
2022-10-29T10:29:24.212Z,27.45
2022-10-29T10:32:17.974Z,27.39
2022-10-29T10:34:46.276Z,27.33
2022-10-29T10:37:21.209Z,27.29
2022-10-29T10:39:59.588Z,27.23
2022-10-29T10:42:43.784Z,27.17
2022-10-29T10:45:24.846Z,27.10
2022-10-29T10:47:59.740Z,27.05
2022-10-29T10:50:38.623Z,27.01
2022-10-29T10:53:18.027Z,26.96
2022-10-29T10:55:54.134Z,26.92
2022-10-29T10:58:28.589Z,26.88
2022-10-29T11:01:16.341Z,26.83
2022-10-29T11:04:14.653Z,26.80
2022-10-29T11:06:47.834Z,26.75
2022-10-29T11:09:32.823Z,26.72
2022-10-29T11:12:04.671Z,26.68
2022-10-29T11:15:05.179Z,26.62
2022-10-29T11:17:56.034Z,26.57
2022-10-29T11:20:29.316Z,26.53
2022-10-29T11:23:35.708Z,26.50
2022-10-29T11:26:15.525Z,26.45
2022-10-29T11:29:22.786Z,26.40
2022-10-29T11:31:55.053Z,26.38
2022-10-29T11:34:41.837Z,26.34
2022-10-29T11:37:24.882Z,26.29
2022-10-29T11:39:58.944Z,26.26
2022-10-29T11:42:27.549Z,26.21
2022-10-29T11:44:56.262Z,26.21
2022-10-29T11:47:40.845Z,26.19
2022-10-29T11:50:35.059Z,26.17
2022-10-29T11:53:09.531Z,26.14
2022-10-29T11:56:05.712Z,26.14
2022-10-29T11:59:20.800Z,26.12
2022-10-29T12:02:08.249Z,26.09
2022-10-29T12:05:01.086Z,26.04
2022-10-29T12:07:56.993Z,26.00
2022-10-29T12:10:41.891Z,25.96
2022-10-29T12:13:19.040Z,25.92
2022-10-29T12:15:53.481Z,25.87
2022-10-29T12:18:24.920Z,25.86
2022-10-29T12:21:18.506Z,25.84
2022-10-29T12:23:46.760Z,25.83
2022-10-29T12:26:38.910Z,25.80
2022-10-29T12:29:18.559Z,25.79
2022-10-29T12:32:00.667Z,25.78
2022-10-29T12:34:40.880Z,25.75
2022-10-29T12:37:41.572Z,25.73
2022-10-29T12:40:26.180Z,25.70
2022-10-29T12:42:55.607Z,25.69
2022-10-29T12:45:26.566Z,25.65
2022-10-29T12:48:14.760Z,25.62
2022-10-29T12:51:05.139Z,25.61
2022-10-29T12:53:48.387Z,25.55
2022-10-29T12:56:17.681Z,25.52
2022-10-29T12:58:51.780Z,25.49
2022-10-29T13:01:57.523Z,25.46
2022-10-29T13:04:35.116Z,25.42
2022-10-29T13:07:24.216Z,25.38
2022-10-29T13:10:31.746Z,25.33
2022-10-29T13:13:17.163Z,25.30
2022-10-29T13:16:06.768Z,25.26
2022-10-29T13:18:41.860Z,25.25
2022-10-29T13:21:10.738Z,25.23
2022-10-29T13:23:39.460Z,25.21
2022-10-29T13:26:09.329Z,25.18
2022-10-29T13:28:37.591Z,25.18
2022-10-29T13:31:05.863Z,25.16
2022-10-29T13:33:34.146Z,25.15
2022-10-29T13:36:17.772Z,25.12
2022-10-29T13:39:04.904Z,25.11
2022-10-29T13:41:41.363Z,25.07
2022-10-29T13:44:17.797Z,25.05
2022-10-29T13:46:52.085Z,25.02
2022-10-29T13:49:39.062Z,24.98
2022-10-29T13:52:13.611Z,24.96
2022-10-29T13:54:52.865Z,24.95
2022-10-29T13:57:27.409Z,24.92
2022-10-29T14:00:10.068Z,24.92
2022-10-29T14:02:40.964Z,24.90
2022-10-29T14:05:31.134Z,24.88
2022-10-29T14:08:12.856Z,24.85
2022-10-29T14:10:41.314Z,24.83
2022-10-29T14:13:24.818Z,24.81
2022-10-29T14:16:08.577Z,24.82
2022-10-29T14:18:45.370Z,24.82
2022-10-29T14:21:25.860Z,24.81
2022-10-29T14:23:59.907Z,24.80
2022-10-29T14:26:30.116Z,24.77
2022-10-29T14:29:13.635Z,24.74
2022-10-29T14:31:42.060Z,24.72
2022-10-29T14:34:27.816Z,24.68
2022-10-29T14:37:22.867Z,24.65
2022-10-29T14:39:59.014Z,24.62
2022-10-29T14:42:44.671Z,24.59
2022-10-29T14:45:24.879Z,24.55
2022-10-29T14:48:04.197Z,24.56
2022-10-29T14:50:33.112Z,24.53
2022-10-29T14:53:06.775Z,24.51
2022-10-29T14:55:47.250Z,24.51
2022-10-29T14:58:27.502Z,24.48
2022-10-29T15:01:01.999Z,24.46
2022-10-29T15:03:35.925Z,24.44
2022-10-29T15:06:20.060Z,24.41
2022-10-29T15:09:00.456Z,24.40
2022-10-29T15:12:03.214Z,24.38
2022-10-29T15:14:54.653Z,24.33
2022-10-29T15:17:30.364Z,24.32
2022-10-29T15:20:04.685Z,24.29
2022-10-29T15:22:42.296Z,24.26
2022-10-29T15:25:23.520Z,24.24
2022-10-29T15:27:54.136Z,24.22
2022-10-29T15:30:29.546Z,24.20
2022-10-29T15:33:01.396Z,24.19
2022-10-29T15:35:30.591Z,24.17
2022-10-29T15:37:58.961Z,24.15
2022-10-29T15:40:27.570Z,24.13
2022-10-29T15:42:56.482Z,24.10
2022-10-29T15:45:29.704Z,24.09
2022-10-29T15:48:09.963Z,24.09
2022-10-29T15:50:44.611Z,24.09
2022-10-29T15:53:17.845Z,24.08
2022-10-29T15:55:46.449Z,24.09
2022-10-29T15:58:20.978Z,24.10
2022-10-29T16:00:49.365Z,24.09
2022-10-29T16:03:19.307Z,24.07
2022-10-29T16:06:00.364Z,24.05
2022-10-29T16:08:37.474Z,24.03
2022-10-29T16:11:11.677Z,24.01
2022-10-29T16:13:40.499Z,23.98
2022-10-29T16:16:20.447Z,23.95
2022-10-29T16:18:52.978Z,23.91
2022-10-29T16:21:24.167Z,23.88
2022-10-29T16:23:53.008Z,23.86
2022-10-29T16:26:23.846Z,23.85
2022-10-29T16:28:55.629Z,23.83
2022-10-29T16:31:27.339Z,23.81
2022-10-29T16:33:59.593Z,23.78
2022-10-29T16:36:28.458Z,23.78
2022-10-29T16:38:56.783Z,23.75
2022-10-29T16:41:25.137Z,23.70
2022-10-29T16:43:53.939Z,23.70
2022-10-29T16:46:22.653Z,23.69
2022-10-29T16:48:51.044Z,23.66
2022-10-29T16:51:19.353Z,23.65
2022-10-29T16:53:47.635Z,23.63
2022-10-29T16:56:15.943Z,23.61
2022-10-29T16:58:44.294Z,23.61
2022-10-29T17:01:12.823Z,23.59
2022-10-29T17:03:41.375Z,23.58
2022-10-29T17:06:11.545Z,23.58
2022-10-29T17:08:40.089Z,23.56
2022-10-29T17:11:11.411Z,23.56
2022-10-29T17:13:40.329Z,23.55
2022-10-29T17:16:15.585Z,23.53
2022-10-29T17:18:44.031Z,23.52
2022-10-29T17:21:12.621Z,23.52
2022-10-29T17:23:41.017Z,23.51
2022-10-29T17:26:09.353Z,23.50
2022-10-29T17:28:39.486Z,23.48
2022-10-29T17:31:08.899Z,23.48
2022-10-29T17:33:37.463Z,23.46
2022-10-29T17:36:16.913Z,23.46
2022-10-29T17:38:45.606Z,23.45
2022-10-29T17:41:13.929Z,23.43
2022-10-29T17:43:42.353Z,23.42
2022-10-29T17:46:10.716Z,23.42
2022-10-29T17:48:39.842Z,23.40
2022-10-29T17:51:09.345Z,23.39
2022-10-29T17:53:40.098Z,23.36
2022-10-29T17:56:08.783Z,23.34
2022-10-29T17:58:40.443Z,23.33
2022-10-29T18:01:11.248Z,23.32
2022-10-29T18:03:40.009Z,23.32
2022-10-29T18:06:10.873Z,23.33
2022-10-29T18:08:41.266Z,23.32
2022-10-29T18:11:12.599Z,23.32
2022-10-29T18:13:45.151Z,23.31
2022-10-29T18:16:15.773Z,23.33
2022-10-29T18:19:00.611Z,23.33
2022-10-29T18:21:31.840Z,23.35
2022-10-29T18:24:00.214Z,23.33
2022-10-29T18:26:34.935Z,23.34
2022-10-29T18:29:08.598Z,23.35
2022-10-29T18:31:37.602Z,23.34
2022-10-29T18:34:08.545Z,23.33
2022-10-29T18:36:37.209Z,23.32
2022-10-29T18:39:07.212Z,23.32
2022-10-29T18:41:36.645Z,23.31
2022-10-29T18:44:05.156Z,23.29
2022-10-29T18:46:33.713Z,23.27
2022-10-29T18:49:02.379Z,23.25
2022-10-29T18:51:33.088Z,23.24
2022-10-29T18:54:01.764Z,23.21
2022-10-29T18:56:31.404Z,23.18
2022-10-29T18:59:01.270Z,23.16
2022-10-29T19:01:35.198Z,23.16
2022-10-29T19:04:06.826Z,23.16
2022-10-29T19:06:38.006Z,23.15
2022-10-29T19:09:10.457Z,23.13
2022-10-29T19:11:39.122Z,23.12
2022-10-29T19:14:10.665Z,23.10
2022-10-29T19:16:39.010Z,23.07
2022-10-29T19:19:16.074Z,23.06
2022-10-29T19:21:46.841Z,23.04
2022-10-29T19:24:16.245Z,23.02
2022-10-29T19:26:45.242Z,23.00
2022-10-29T19:29:14.322Z,22.97
2022-10-29T19:31:45.191Z,22.95
2022-10-29T19:34:13.608Z,22.95
2022-10-29T19:36:41.962Z,22.92
2022-10-29T19:39:10.378Z,22.92
2022-10-29T19:41:38.719Z,22.89
2022-10-29T19:44:07.485Z,22.87
2022-10-29T19:46:35.978Z,22.87
2022-10-29T19:49:04.553Z,22.85
2022-10-29T19:51:32.907Z,22.81
2022-10-29T19:54:03.340Z,22.81
2022-10-29T19:56:31.628Z,22.79
2022-10-29T19:58:59.997Z,22.79
2022-10-29T20:01:28.430Z,22.79
2022-10-29T20:03:57.869Z,22.78
2022-10-29T20:06:26.253Z,22.76
2022-10-29T20:08:54.542Z,22.74
2022-10-29T20:11:25.428Z,22.74
2022-10-29T20:13:53.740Z,22.73
2022-10-29T20:16:22.882Z,22.69
2022-10-29T20:18:51.937Z,22.68
2022-10-29T20:21:20.483Z,22.67
2022-10-29T20:23:48.909Z,22.64
2022-10-29T20:26:17.351Z,22.62
2022-10-29T20:28:45.777Z,22.60
2022-10-29T20:31:20.333Z,22.58
2022-10-29T20:33:53.555Z,22.56
2022-10-29T20:36:23.134Z,22.55
2022-10-29T20:38:52.853Z,22.53
2022-10-29T20:41:22.764Z,22.51
2022-10-29T20:43:56.138Z,22.49
2022-10-29T20:46:25.959Z,22.47
2022-10-29T20:48:54.885Z,22.45
2022-10-29T20:51:24.028Z,22.42
2022-10-29T20:53:53.568Z,22.41
2022-10-29T20:56:23.474Z,22.39
2022-10-29T20:58:52.287Z,22.38
2022-10-29T21:01:23.809Z,22.37
2022-10-29T21:03:52.778Z,22.36
2022-10-29T21:06:21.559Z,22.33
2022-10-29T21:08:52.470Z,22.32
2022-10-29T21:11:22.577Z,22.30
2022-10-29T21:13:51.691Z,22.29
2022-10-29T21:16:27.464Z,22.28
2022-10-29T21:19:01.349Z,22.27
2022-10-29T21:21:31.042Z,22.25
2022-10-29T21:23:59.977Z,22.23
2022-10-29T21:26:29.300Z,22.22
2022-10-29T21:28:57.743Z,22.21
2022-10-29T21:31:26.257Z,22.20
2022-10-29T21:33:56.043Z,22.19
2022-10-29T21:36:24.505Z,22.17
2022-10-29T21:38:52.787Z,22.16
2022-10-29T21:41:21.144Z,22.14
2022-10-29T21:43:49.476Z,22.13
2022-10-29T21:46:17.792Z,22.12
2022-10-29T21:48:46.237Z,22.10
2022-10-29T21:51:17.197Z,22.10
2022-10-29T21:53:45.782Z,22.07
2022-10-29T21:56:16.133Z,22.05
2022-10-29T21:58:45.108Z,22.06
2022-10-29T22:01:16.040Z,22.04
2022-10-29T22:03:46.318Z,22.04
2022-10-29T22:06:26.701Z,22.03
2022-10-29T22:08:57.465Z,22.01
2022-10-29T22:11:27.419Z,22.01
2022-10-29T22:13:56.291Z,21.99
2022-10-29T22:16:25.079Z,21.97
2022-10-29T22:18:54.770Z,21.97
2022-10-29T22:21:26.342Z,21.96
2022-10-29T22:23:57.821Z,21.95
2022-10-29T22:26:31.045Z,21.93
2022-10-29T22:28:59.380Z,21.92
2022-10-29T22:31:28.358Z,21.92
2022-10-29T22:33:56.829Z,21.90
2022-10-29T22:36:27.440Z,21.90
2022-10-29T22:38:57.598Z,21.88
2022-10-29T22:41:26.975Z,21.85
2022-10-29T22:43:56.505Z,21.84
2022-10-29T22:46:24.855Z,21.83
2022-10-29T22:48:53.209Z,21.82
2022-10-29T22:51:26.944Z,21.82
2022-10-29T22:53:55.583Z,21.80
2022-10-29T22:56:26.455Z,21.79
2022-10-29T22:58:55.172Z,21.78
2022-10-29T23:01:27.556Z,21.76
2022-10-29T23:03:56.508Z,21.76
2022-10-29T23:06:26.000Z,21.75
2022-10-29T23:08:57.012Z,21.76
2022-10-29T23:11:31.264Z,21.76
2022-10-29T23:14:02.917Z,21.75
2022-10-29T23:16:33.749Z,21.76
2022-10-29T23:19:04.324Z,21.76
2022-10-29T23:21:33.355Z,21.76
2022-10-29T23:24:01.822Z,21.76
2022-10-29T23:26:30.182Z,21.77
2022-10-29T23:28:58.557Z,21.77
2022-10-29T23:31:29.179Z,21.79
2022-10-29T23:33:58.988Z,21.80
2022-10-29T23:36:28.378Z,21.81
2022-10-29T23:38:58.729Z,21.81
2022-10-29T23:41:28.554Z,21.82
2022-10-29T23:43:57.111Z,21.84
2022-10-29T23:46:25.781Z,21.85
2022-10-29T23:48:54.085Z,21.87
2022-10-29T23:51:22.555Z,21.88
2022-10-29T23:53:54.727Z,21.92
2022-10-29T23:56:26.943Z,21.93
2022-10-29T23:58:55.437Z,21.95
